Time;durP1;ratioP1;P1;durP2;ratioP2;P2;SDS_P1;SDS_P2;PMS_P1;PMS_P2;Temp;Humidity;BMP_temperature;BMP_pressure;BME280_temperature;BME280_humidity;BME280_pressure;Samples;Min_cycle;Max_cycle;Signal;HPM_P1;HPM_P2
2022/05/24 00:01:17;;;;;;;11.10;2.67;;;12.90;99.90;;;;;;5074143;28;20548;-57
2022/05/24 00:03:43;;;;;;;5.00;2.47;;;12.90;99.90;;;;;;5074007;28;20340;-57
2022/05/24 00:06:09;;;;;;;12.68;2.60;;;12.90;99.90;;;;;;5073683;28;20094;-57
2022/05/24 00:08:35;;;;;;;9.90;2.60;;;12.80;99.90;;;;;;5073684;28;20029;-57
2022/05/24 00:11:01;;;;;;;7.85;2.97;;;12.80;99.90;;;;;;5073841;28;20082;-57
2022/05/24 00:13:26;;;;;;;12.98;3.30;;;12.80;99.90;;;;;;5073607;28;20059;-58
2022/05/24 00:15:52;;;;;;;14.68;3.67;;;12.90;99.90;;;;;;5073707;28;20497;-57
2022/05/24 00:18:23;;;;;;;12.13;3.30;;;12.90;99.90;;;;;;5073881;28;20063;-57
2022/05/24 00:20:55;;;;;;;11.65;4.07;;;12.80;99.90;;;;;;5073855;28;20063;-56
2022/05/24 00:23:22;;;;;;;11.30;4.47;;;12.80;99.90;;;;;;5071956;28;20024;-57
2022/05/24 00:25:52;;;;;;;17.08;3.80;;;12.80;99.90;;;;;;5072849;28;20074;-57
2022/05/24 00:28:19;;;;;;;14.52;4.10;;;12.70;99.90;;;;;;5073095;28;20055;-56
2022/05/24 00:30:47;;;;;;;15.43;3.97;;;12.60;99.90;;;;;;5073348;28;20043;-57
2022/05/24 00:33:15;;;;;;;11.00;3.85;;;12.60;99.90;;;;;;5073187;28;20020;-57
2022/05/24 00:35:42;;;;;;;14.30;3.88;;;12.40;99.90;;;;;;5073132;28;20031;-57
2022/05/24 00:38:11;;;;;;;15.77;4.53;;;12.40;99.90;;;;;;5071815;28;20073;-57
2022/05/24 00:40:58;;;;;;;13.52;4.20;;;12.40;99.90;;;;;;5073642;28;20027;-58
2022/05/24 00:43:52;;;;;;;15.30;3.78;;;12.20;99.90;;;;;;5073209;28;20021;-56
2022/05/24 00:46:35;;;;;;;20.70;4.18;;;12.20;99.90;;;;;;5058263;28;20033;-57
2022/05/24 00:49:08;;;;;;;12.00;3.80;;;12.10;99.90;;;;;;5073263;28;20438;-57
2022/05/24 00:51:43;;;;;;;12.35;4.00;;;12.10;99.90;;;;;;5072693;28;20103;-57
2022/05/24 00:54:08;;;;;;;12.00;3.75;;;12.10;99.90;;;;;;5072802;28;20484;-58
2022/05/24 00:56:49;;;;;;;12.68;3.75;;;12.10;99.90;;;;;;5073073;28;20024;-57
2022/05/24 00:59:35;;;;;;;11.68;3.53;;;12.20;99.90;;;;;;5073025;28;20101;-58
2022/05/24 01:02:02;;;;;;;12.88;3.53;;;12.20;99.90;;;;;;5072682;28;20024;-57
2022/05/24 01:04:27;;;;;;;17.98;3.80;;;12.20;99.90;;;;;;5072695;28;20029;-60
2022/05/24 01:06:53;;;;;;;18.17;3.97;;;12.30;99.90;;;;;;5072454;28;20033;-57
2022/05/24 01:09:25;;;;;;;10.63;2.90;;;12.30;99.90;;;;;;5072677;28;20028;-57
2022/05/24 01:11:56;;;;;;;20.30;3.47;;;12.40;99.90;;;;;;5072920;28;20085;-57
2022/05/24 01:14:25;;;;;;;12.05;3.25;;;12.40;99.90;;;;;;5072293;28;20020;-57
2022/05/24 01:16:52;;;;;;;15.77;3.25;;;12.30;99.90;;;;;;5072740;28;20024;-57
2022/05/24 01:19:41;;;;;;;16.92;4.10;;;12.30;99.90;;;;;;5070991;28;20036;-57
2022/05/24 01:22:20;;;;;;;13.93;3.08;;;12.20;99.90;;;;;;5072780;28;20025;-57
2022/05/24 01:24:58;;;;;;;15.30;3.47;;;12.20;99.90;;;;;;5072506;28;20052;-58
2022/05/24 01:27:23;;;;;;;9.07;2.67;;;12.20;99.90;;;;;;5072490;28;20078;-58
2022/05/24 01:29:49;;;;;;;14.23;2.50;;;12.20;99.90;;;;;;5072536;28;20505;-57
2022/05/24 01:37:43;;;;;;;11.30;3.08;;;12.30;99.90;;;;;;5072286;28;20097;-64
2022/05/24 01:40:09;;;;;;;10.20;2.15;;;12.30;99.90;;;;;;5072324;28;20475;-57
2022/05/24 01:42:35;;;;;;;10.80;2.22;;;12.30;99.90;;;;;;5070210;28;20388;-57
2022/05/24 01:45:18;;;;;;;13.13;2.58;;;12.40;99.90;;;;;;5071665;28;20031;-57
2022/05/24 01:47:47;;;;;;;11.60;2.40;;;12.50;99.90;;;;;;5072416;28;20021;-59
2022/05/24 01:50:17;;;;;;;8.68;2.50;;;12.50;99.90;;;;;;5072599;28;20424;-60
2022/05/24 01:52:58;;;;;;;10.98;2.47;;;12.50;99.90;;;;;;5072136;28;20020;-57
2022/05/24 01:55:31;;;;;;;9.05;2.03;;;12.50;99.90;;;;;;5072406;28;20111;-57
2022/05/24 01:58:01;;;;;;;7.63;2.22;;;12.50;99.90;;;;;;5071980;28;20063;-57
2022/05/24 02:00:27;;;;;;;7.55;1.80;;;12.60;99.90;;;;;;5071882;28;20032;-59
2022/05/24 02:02:53;;;;;;;10.15;2.65;;;12.50;99.90;;;;;;5071178;28;20029;-58
2022/05/24 02:05:37;;;;;;;8.82;2.50;;;12.50;99.90;;;;;;5071436;28;20025;-57
2022/05/24 02:08:06;;;;;;;10.35;2.38;;;12.50;99.90;;;;;;5071840;28;20074;-57
2022/05/24 02:10:45;;;;;;;11.25;1.90;;;12.50;99.90;;;;;;5087368;28;20489;-57
2022/05/24 02:13:13;;;;;;;10.38;2.17;;;12.60;99.90;;;;;;5071597;28;20031;-57
2022/05/24 02:15:42;;;;;;;11.00;2.53;;;12.60;99.90;;;;;;5071683;28;20107;-57
2022/05/24 02:18:14;;;;;;;9.25;2.08;;;12.60;99.90;;;;;;5071339;28;20492;-57
2022/05/24 02:20:43;;;;;;;11.73;2.58;;;12.70;99.90;;;;;;5087466;28;20389;-57
2022/05/24 02:23:11;;;;;;;9.82;2.13;;;12.60;99.90;;;;;;5071604;28;20107;-57
2022/05/24 02:25:50;;;;;;;10.13;2.42;;;12.60;99.90;;;;;;5071640;28;20029;-57
2022/05/24 02:28:18;;;;;;;8.98;2.45;;;12.50;99.90;;;;;;5071600;28;20151;-57
2022/05/24 02:30:48;;;;;;;11.63;2.40;;;12.50;99.90;;;;;;5071871;28;20166;-57
2022/05/24 02:33:13;;;;;;;8.68;2.47;;;12.40;99.90;;;;;;5072246;28;20044;-57
2022/05/24 02:35:39;;;;;;;10.82;2.03;;;12.30;99.90;;;;;;5072073;28;20044;-57
2022/05/24 02:38:06;;;;;;;12.85;2.65;;;12.20;99.90;;;;;;5071563;28;20021;-57
2022/05/24 02:43:15;;;;;;;10.35;2.65;;;12.20;99.90;;;;;;5072284;28;20078;-58
2022/05/24 02:45:41;;;;;;;12.38;2.30;;;12.10;99.90;;;;;;5071373;28;20033;-58
2022/05/24 02:48:08;;;;;;;13.07;2.35;;;12.10;99.90;;;;;;5071462;28;20025;-58
2022/05/24 02:50:33;;;;;;;11.60;2.22;;;12.10;99.90;;;;;;5071917;28;20040;-58
2022/05/24 02:52:59;;;;;;;7.88;2.03;;;12.10;99.90;;;;;;5087051;28;20027;-62
2022/05/24 02:55:25;;;;;;;13.32;2.13;;;12.10;99.90;;;;;;5071928;28;20081;-57
2022/05/24 02:57:50;;;;;;;7.57;2.00;;;12.10;99.90;;;;;;5071485;28;20081;-58
2022/05/24 03:00:24;;;;;;;12.30;2.08;;;12.10;99.90;;;;;;5071440;28;20172;-57
2022/05/24 03:02:50;;;;;;;9.68;2.00;;;12.10;99.90;;;;;;5071467;28;20397;-58
2022/05/24 03:05:17;;;;;;;7.78;1.88;;;12.00;99.90;;;;;;5071061;28;20025;-57
2022/05/24 03:10:29;;;;;;;7.25;1.95;;;12.10;99.90;;;;;;5071569;28;20056;-57
2022/05/24 03:15:41;;;;;;;7.88;1.98;;;12.10;99.90;;;;;;5074490;28;20489;-57
2022/05/24 03:18:08;;;;;;;8.35;1.83;;;12.00;99.90;;;;;;5074791;28;20032;-58
2022/05/24 03:20:34;;;;;;;10.55;1.90;;;12.10;99.90;;;;;;5090729;28;20043;-57
2022/05/24 03:23:00;;;;;;;8.77;1.83;;;12.10;99.90;;;;;;5074834;28;20079;-58
2022/05/24 03:25:25;;;;;;;8.63;1.70;;;12.00;99.90;;;;;;5075042;28;20040;-57
2022/05/24 03:27:51;;;;;;;12.73;1.88;;;11.90;99.90;;;;;;5075340;28;20031;-57
2022/05/24 03:30:16;;;;;;;11.73;2.05;;;11.90;99.90;;;;;;5074821;28;20098;-57
2022/05/24 03:32:42;;;;;;;8.10;1.77;;;11.90;99.90;;;;;;5075173;28;20366;-57
2022/05/24 03:35:12;;;;;;;10.23;1.38;;;11.90;99.90;;;;;;5074749;28;20028;-57
2022/05/24 03:37:39;;;;;;;8.18;1.90;;;11.90;99.90;;;;;;5074652;28;20545;-57
2022/05/24 03:40:06;;;;;;;6.47;1.67;;;11.80;99.90;;;;;;5074146;28;20396;-57
2022/05/24 03:42:32;;;;;;;14.18;2.15;;;11.80;99.90;;;;;;5074149;28;20033;-57
2022/05/24 03:44:58;;;;;;;7.28;1.40;;;11.90;99.90;;;;;;5073988;28;20481;-57
2022/05/24 03:47:24;;;;;;;9.85;1.70;;;11.80;99.90;;;;;;5074131;28;20074;-57
2022/05/24 03:49:49;;;;;;;6.93;1.67;;;11.80;99.90;;;;;;5090492;28;20020;-58
2022/05/24 03:52:15;;;;;;;7.55;1.80;;;11.80;99.90;;;;;;5074357;28;20059;-58
2022/05/24 03:54:40;;;;;;;11.82;1.88;;;11.70;99.90;;;;;;5074106;28;20435;-57
2022/05/24 03:59:51;;;;;;;8.85;2.08;;;11.80;99.90;;;;;;5074805;28;20385;-56
2022/05/24 04:02:16;;;;;;;15.00;2.30;;;11.70;99.90;;;;;;5074025;28;20020;-57
2022/05/24 04:04:42;;;;;;;9.30;2.30;;;11.80;99.90;;;;;;5073970;28;20028;-57
2022/05/24 04:07:08;;;;;;;7.78;2.10;;;11.80;99.90;;;;;;5089664;28;20404;-59
2022/05/24 04:09:34;;;;;;;9.70;2.47;;;11.70;99.90;;;;;;5074155;28;20029;-58
2022/05/24 04:12:01;;;;;;;7.90;2.42;;;11.60;99.90;;;;;;5073909;28;20031;-57
2022/05/24 04:14:29;;;;;;;9.75;2.05;;;11.60;99.90;;;;;;5073588;28;20432;-57
2022/05/24 04:16:55;;;;;;;9.10;2.10;;;11.60;99.90;;;;;;5074364;28;20021;-57
2022/05/24 04:19:21;;;;;;;10.82;2.97;;;11.50;99.90;;;;;;5073857;28;20032;-57
2022/05/24 04:21:46;;;;;;;12.90;2.65;;;11.50;99.90;;;;;;5074232;28;20070;-57
2022/05/24 04:24:12;;;;;;;11.05;2.85;;;11.50;99.90;;;;;;5073776;28;20029;-57
2022/05/24 04:26:38;;;;;;;9.68;3.42;;;11.50;99.90;;;;;;5072861;28;20020;-60
2022/05/24 04:29:04;;;;;;;13.82;4.00;;;11.50;99.90;;;;;;5073337;28;20082;-57
2022/05/24 04:31:29;;;;;;;9.68;3.63;;;11.50;99.90;;;;;;5073144;28;20044;-57
2022/05/24 04:33:55;;;;;;;11.25;3.00;;;11.50;99.90;;;;;;5073310;28;20110;-57
2022/05/24 04:36:21;;;;;;;16.02;3.33;;;11.50;99.90;;;;;;5073007;28;20027;-57
2022/05/24 04:38:47;;;;;;;12.77;3.22;;;11.40;99.90;;;;;;5073331;28;20028;-58
2022/05/24 04:43:56;;;;;;;7.13;2.42;;;11.50;99.90;;;;;;5073265;28;20066;-57
2022/05/24 04:46:22;;;;;;;15.40;3.20;;;11.50;99.90;;;;;;5072050;28;20068;-57
2022/05/24 04:48:48;;;;;;;12.88;3.67;;;11.50;99.90;;;;;;5072926;28;20028;-57
2022/05/24 04:51:16;;;;;;;9.30;3.33;;;11.60;99.90;;;;;;5072691;28;20481;-57
2022/05/24 04:53:42;;;;;;;12.38;3.00;;;11.60;99.90;;;;;;5072320;28;20554;-57
2022/05/24 04:56:08;;;;;;;11.93;2.80;;;11.70;99.90;;;;;;5072404;28;20017;-57
2022/05/24 04:58:33;;;;;;;13.15;3.30;;;11.80;99.90;;;;;;5072757;28;20104;-57
2022/05/24 05:00:59;;;;;;;10.27;3.10;;;11.80;99.90;;;;;;5072754;28;20074;-57
2022/05/24 05:03:26;;;;;;;14.55;2.90;;;11.90;99.90;;;;;;5072582;28;20033;-57
2022/05/24 05:05:52;;;;;;;14.25;3.78;;;11.90;99.90;;;;;;5072384;28;20578;-57
2022/05/24 05:08:19;;;;;;;9.07;3.40;;;11.90;99.90;;;;;;5072031;28;20028;-56
2022/05/24 05:10:44;;;;;;;10.57;3.95;;;11.80;99.90;;;;;;5072430;28;20021;-57
2022/05/24 05:13:10;;;;;;;9.10;4.05;;;11.80;99.90;;;;;;5072498;28;20031;-57
2022/05/24 05:15:37;;;;;;;6.50;3.28;;;11.80;99.90;;;;;;5072413;28;20104;-57
2022/05/24 05:18:14;;;;;;;15.70;4.28;;;11.90;99.90;;;;;;5072371;28;20024;-57
2022/05/24 05:20:41;;;;;;;10.82;3.67;;;12.00;99.90;;;;;;5072054;28;20048;-57
2022/05/24 05:23:14;;;;;;;11.00;3.35;;;12.00;99.90;;;;;;5063572;28;20037;-57
2022/05/24 05:25:41;;;;;;;12.93;4.20;;;12.20;99.90;;;;;;5064123;28;20032;-56
2022/05/24 05:28:07;;;;;;;13.98;3.78;;;12.30;99.90;;;;;;5065675;28;20111;-56
2022/05/24 05:33:17;;;;;;;9.57;3.15;;;12.30;99.90;;;;;;5071045;28;20086;-57
2022/05/24 05:35:44;;;;;;;7.65;2.95;;;12.40;99.90;;;;;;5060164;28;20477;-57
2022/05/24 05:38:10;;;;;;;10.75;3.33;;;12.50;99.90;;;;;;5069985;28;20020;-57
2022/05/24 05:40:36;;;;;;;9.85;2.85;;;12.70;99.90;;;;;;5069427;28;20035;-56
2022/05/24 05:43:02;;;;;;;10.55;3.03;;;12.40;99.90;;;;;;5070280;28;20393;-57
2022/05/24 05:45:27;;;;;;;9.10;2.60;;;12.30;99.90;;;;;;5070184;28;20081;-57
2022/05/24 05:47:53;;;;;;;6.13;2.20;;;12.40;99.90;;;;;;5069840;28;20028;-57
2022/05/24 05:50:22;;;;;;;7.82;2.05;;;12.40;99.90;;;;;;5070880;28;20024;-57
2022/05/24 05:52:50;;;;;;;8.95;2.25;;;12.40;99.90;;;;;;5067722;28;20040;-57
2022/05/24 05:55:16;;;;;;;9.32;2.25;;;12.30;99.90;;;;;;5067102;28;20124;-57
2022/05/24 05:57:41;;;;;;;8.15;2.25;;;12.30;99.90;;;;;;5070258;28;20032;-56
2022/05/24 06:00:08;;;;;;;7.38;2.08;;;12.40;99.90;;;;;;5067649;28;20064;-56
2022/05/24 06:02:35;;;;;;;6.45;1.35;;;12.50;99.90;;;;;;5067973;28;20052;-56
2022/05/24 06:05:00;;;;;;;4.53;1.35;;;12.60;99.90;;;;;;5066350;28;20032;-57
2022/05/24 06:07:26;;;;;;;5.13;1.70;;;12.60;99.90;;;;;;5053340;28;20039;-57
2022/05/24 06:09:52;;;;;;;4.78;1.38;;;12.70;99.90;;;;;;5048828;28;21532;-58
2022/05/24 06:12:18;;;;;;;4.47;1.48;;;12.80;99.90;;;;;;5050935;28;20064;-57
2022/05/24 06:14:44;;;;;;;3.05;1.40;;;12.80;99.90;;;;;;5058037;28;20993;-56
2022/05/24 06:17:10;;;;;;;6.45;1.77;;;12.80;99.90;;;;;;5054098;28;20167;-57
2022/05/24 06:19:36;;;;;;;6.40;1.45;;;12.80;99.90;;;;;;5056454;28;20044;-56
2022/05/24 06:22:02;;;;;;;4.70;1.42;;;12.80;99.90;;;;;;5053842;28;20091;-56
2022/05/24 06:24:28;;;;;;;7.82;1.58;;;13.00;99.90;;;;;;5053325;28;20102;-56
2022/05/24 06:26:53;;;;;;;7.70;1.50;;;13.10;99.90;;;;;;5055639;28;20025;-57
2022/05/24 06:29:19;;;;;;;3.53;1.52;;;13.10;99.90;;;;;;5058016;28;20032;-56
2022/05/24 06:31:45;;;;;;;7.47;1.55;;;13.10;99.90;;;;;;5053663;28;20045;-57
2022/05/24 06:34:11;;;;;;;7.30;1.60;;;13.30;99.90;;;;;;5053256;28;20231;-57
2022/05/24 06:36:37;;;;;;;9.60;1.60;;;13.30;99.90;;;;;;5052426;28;20035;-56
2022/05/24 06:39:03;;;;;;;7.50;1.70;;;13.50;99.90;;;;;;5053684;28;20029;-56
2022/05/24 06:41:29;;;;;;;5.43;1.73;;;13.60;99.90;;;;;;5051548;28;20139;-56
2022/05/24 06:43:54;;;;;;;6.80;1.90;;;13.50;99.90;;;;;;5056086;28;20036;-56
2022/05/24 06:46:20;;;;;;;5.03;1.60;;;13.60;99.90;;;;;;5041809;28;20044;-56
2022/05/24 06:48:46;;;;;;;5.20;1.90;;;13.60;99.90;;;;;;5043944;28;20064;-56
2022/05/24 06:51:15;;;;;;;7.00;1.30;;;13.70;99.90;;;;;;5055988;28;20461;-56
2022/05/24 06:53:43;;;;;;;5.45;1.30;;;13.60;99.90;;;;;;5057372;28;20066;-56
2022/05/24 06:56:10;;;;;;;2.58;1.17;;;13.80;99.90;;;;;;5044652;28;20516;-56
2022/05/24 06:58:36;;;;;;;5.72;1.50;;;13.80;99.90;;;;;;5059033;28;20519;-56
2022/05/24 07:03:48;;;;;;;7.95;1.30;;;13.90;99.90;;;;;;5052530;28;20047;-56
2022/05/24 07:06:15;;;;;;;7.13;1.50;;;13.90;99.90;;;;;;5052631;28;20041;-56
2022/05/24 07:08:42;;;;;;;5.53;1.40;;;13.90;99.90;;;;;;5056106;28;20028;-56
2022/05/24 07:11:08;;;;;;;5.15;1.30;;;14.10;99.90;;;;;;5056962;28;20035;-57
2022/05/24 07:13:33;;;;;;;4.43;1.00;;;14.70;99.90;;;;;;5056259;28;20029;-57
2022/05/24 07:15:59;;;;;;;4.28;1.00;;;15.10;99.90;;;;;;5056369;28;20024;-57
2022/05/24 07:18:26;;;;;;;4.22;1.08;;;15.60;99.90;;;;;;5051065;28;20504;-54
2022/05/24 07:20:52;;;;;;;2.80;0.70;;;16.50;99.90;;;;;;5050160;28;20036;-54
2022/05/24 07:23:25;;;;;;;3.60;0.85;;;17.00;99.90;;;;;;5062921;28;21864;-54
2022/05/24 07:25:53;;;;;;;2.95;0.80;;;17.00;99.90;;;;;;5057421;28;20037;-54
2022/05/24 07:28:19;;;;;;;5.80;1.05;;;16.30;99.90;;;;;;5064108;28;20096;-54
2022/05/24 07:30:47;;;;;;;3.38;1.02;;;15.90;99.90;;;;;;5053454;28;20158;-54
2022/05/24 07:33:13;;;;;;;4.03;1.00;;;15.60;99.90;;;;;;5063539;28;20152;-55
2022/05/24 07:35:40;;;;;;;4.32;0.93;;;15.40;99.90;;;;;;5055709;28;20047;-54
2022/05/24 07:38:07;;;;;;;3.90;1.13;;;15.10;99.90;;;;;;5056836;28;20021;-56
2022/05/24 07:46:08;;;;;;;5.75;1.60;;;15.60;99.90;;;;;;5057218;28;20110;-55
2022/05/24 07:48:34;;;;;;;1.77;0.77;;;15.70;99.90;;;;;;5056747;28;20075;-55
2022/05/24 07:51:00;;;;;;;4.75;0.93;;;15.60;99.90;;;;;;5049841;28;20047;-55
2022/05/24 07:53:26;;;;;;;5.72;1.10;;;15.30;99.90;;;;;;5048845;28;20074;-55
2022/05/24 07:55:54;;;;;;;3.42;0.80;;;15.10;99.90;;;;;;5056305;28;20021;-55
2022/05/24 07:58:20;;;;;;;5.85;1.23;;;15.10;99.90;;;;;;5046441;28;20107;-55
2022/05/24 08:00:46;;;;;;;3.47;0.80;;;15.20;99.90;;;;;;5056679;28;20564;-55
2022/05/24 08:03:12;;;;;;;3.35;0.85;;;15.30;99.90;;;;;;5062086;28;20036;-55
2022/05/24 08:05:38;;;;;;;3.85;0.68;;;15.90;99.90;;;;;;5061217;28;20028;-55
2022/05/24 08:08:05;;;;;;;3.67;0.68;;;16.30;99.90;;;;;;5056901;28;20032;-54
2022/05/24 08:10:32;;;;;;;2.28;0.85;;;16.40;99.90;;;;;;5059347;28;20705;-54
2022/05/24 08:12:58;;;;;;;4.07;0.93;;;16.40;99.90;;;;;;5053659;28;20043;-54
2022/05/24 08:15:25;;;;;;;2.50;0.80;;;16.40;99.90;;;;;;5057787;28;20109;-54
2022/05/24 08:17:51;;;;;;;6.28;0.75;;;16.60;99.90;;;;;;5051830;28;20119;-54
2022/05/24 08:20:17;;;;;;;7.55;0.63;;;17.50;99.90;;;;;;5050657;28;20561;-54
2022/05/24 08:22:43;;;;;;;2.40;1.08;;;17.70;99.90;;;;;;5055063;28;20032;-54
2022/05/24 08:25:10;;;;;;;5.07;1.00;;;17.10;99.90;;;;;;5056606;28;20038;-54
2022/05/24 08:27:36;;;;;;;3.95;0.85;;;16.60;99.90;;;;;;5059764;28;20423;-54
2022/05/24 08:30:03;;;;;;;6.88;0.85;;;16.70;99.90;;;;;;5056206;28;20128;-54
2022/05/24 08:32:28;;;;;;;2.40;0.57;;;16.60;99.90;;;;;;5058346;28;20029;-54
2022/05/24 08:34:54;;;;;;;2.70;0.70;;;16.10;99.90;;;;;;5061873;28;20035;-54
2022/05/24 08:37:20;;;;;;;2.25;0.70;;;15.90;99.90;;;;;;5063683;28;20052;-54
2022/05/24 08:39:45;;;;;;;4.53;0.80;;;15.80;99.90;;;;;;5061395;28;20020;-54
2022/05/24 08:42:31;;;;;;;1.90;0.90;;;16.40;99.90;;;;;;5063852;28;20474;-54
2022/05/24 08:50:46;;;;;;;2.45;0.60;;;17.20;99.90;;;;;;5056778;28;20035;-54
2022/05/24 08:53:21;;;;;;;1.90;0.52;;;16.90;99.90;;;;;;5049659;28;20401;-54
2022/05/24 08:55:48;;;;;;;3.03;0.65;;;17.80;99.90;;;;;;5048808;28;20187;-55
2022/05/24 08:58:36;;;;;;;1.80;0.60;;;18.70;99.90;;;;;;5071999;28;20111;-54
2022/05/24 09:01:17;;;;;;;3.95;0.68;;;18.80;99.90;;;;;;5052986;28;20027;-54
2022/05/24 09:03:43;;;;;;;3.00;0.50;;;19.00;99.90;;;;;;5056418;28;20081;-54
2022/05/24 09:06:17;;;;;;;2.13;0.52;;;18.90;99.90;;;;;;5057804;28;20041;-54
2022/05/24 09:09:12;;;;;;;0.82;0.55;;;19.10;99.90;;;;;;5063678;28;20032;-54
2022/05/24 09:12:05;;;;;;;2.53;0.50;;;20.50;99.90;;;;;;5045061;28;20417;-54
2022/05/24 09:14:46;;;;;;;1.85;0.63;;;19.60;99.90;;;;;;5061369;28;20028;-54
2022/05/24 09:17:39;;;;;;;3.90;0.88;;;18.40;99.90;;;;;;5060848;28;20025;-54
2022/05/24 09:20:29;;;;;;;5.65;0.60;;;17.90;99.90;;;;;;5073270;28;20024;-54
2022/05/24 09:23:20;;;;;;;2.85;0.73;;;17.10;99.90;;;;;;5061353;28;20028;-54
2022/05/24 09:26:08;;;;;;;4.28;0.80;;;16.70;99.90;;;;;;5050602;28;20983;-54
2022/05/24 09:28:52;;;;;;;2.92;1.05;;;17.50;99.90;;;;;;5060607;28;20025;-54
2022/05/24 09:31:43;;;;;;;4.20;0.85;;;18.20;99.90;;;;;;5061877;28;20127;-54
2022/05/24 09:34:29;;;;;;;1.23;0.40;;;18.40;99.90;;;;;;5061035;28;20040;-54
2022/05/24 09:36:55;;;;;;;5.22;0.80;;;19.00;99.90;;;;;;5064428;28;20445;-54
2022/05/24 09:39:35;;;;;;;3.72;0.85;;;18.60;99.90;;;;;;5059685;28;20029;-54
2022/05/24 09:42:03;;;;;;;3.15;0.60;;;18.90;99.90;;;;;;5063600;28;20485;-54
2022/05/24 09:44:45;;;;;;;3.72;1.00;;;19.00;99.90;;;;;;5062668;28;20032;-54
2022/05/24 09:47:22;;;;;;;4.05;0.60;;;18.50;99.90;;;;;;5057908;28;20103;-55
2022/05/24 09:49:47;;;;;;;3.55;0.77;;;17.70;99.90;;;;;;5059136;28;20090;-54
2022/05/24 09:52:15;;;;;;;3.08;0.73;;;17.80;99.90;;;;;;5057909;28;20067;-54
2022/05/24 09:54:56;;;;;;;3.95;0.70;;;17.80;99.90;;;;;;5059165;28;20064;-54
2022/05/24 09:57:28;;;;;;;4.15;0.70;;;18.00;99.90;;;;;;5056031;28;20024;-54
2022/05/24 10:00:16;;;;;;;2.50;0.60;;;18.60;99.90;;;;;;5061380;28;20035;-54
2022/05/24 10:02:42;;;;;;;4.75;0.80;;;18.70;99.90;;;;;;5047624;28;20028;-54
2022/05/24 10:05:25;;;;;;;3.17;0.80;;;18.10;99.90;;;;;;5055976;28;20021;-54
2022/05/24 10:08:04;;;;;;;1.83;0.40;;;19.00;99.90;;;;;;5049075;28;20037;-54
2022/05/24 10:10:36;;;;;;;3.10;0.40;;;19.30;99.80;;;;;;5045085;28;20600;-53
2022/05/24 10:13:25;;;;;;;3.22;0.52;;;19.10;99.90;;;;;;5047342;28;20029;-55
2022/05/24 10:16:05;;;;;;;4.38;0.50;;;19.70;99.90;;;;;;5049238;28;20032;-54
2022/05/24 10:18:52;;;;;;;5.05;0.70;;;19.40;99.10;;;;;;5053000;28;20025;-54
2022/05/24 10:21:20;;;;;;;1.23;0.40;;;19.40;99.90;;;;;;5051938;28;20495;-54
2022/05/24 10:24:37;;;;;;;2.90;0.50;;;19.40;99.90;;;;;;5050285;28;20083;-54
2022/05/24 10:27:15;;;;;;;1.67;0.40;;;19.20;99.00;;;;;;5009078;28;20045;-53
2022/05/24 10:29:53;;;;;;;7.65;1.00;;;18.90;99.90;;;;;;5050314;28;20569;-54
2022/05/24 10:39:12;;;;;;;1.15;0.32;;;18.40;99.90;;;;;;5057956;28;20093;-54
2022/05/24 10:42:02;;;;;;;3.33;0.45;;;19.00;99.80;;;;;;5062814;28;20028;-54
2022/05/24 10:44:42;;;;;;;4.20;0.35;;;18.60;99.90;;;;;;5060723;28;20028;-54
2022/05/24 10:47:24;;;;;;;5.22;0.40;;;18.10;99.90;;;;;;5066119;28;20536;-54
2022/05/24 10:49:56;;;;;;;2.03;0.60;;;17.50;99.90;;;;;;5065405;28;20056;-53
2022/05/24 10:52:42;;;;;;;2.95;0.55;;;18.00;99.90;;;;;;5067561;28;20032;-54
2022/05/24 10:55:26;;;;;;;1.25;0.60;;;18.20;99.90;;;;;;5059653;28;20048;-53
2022/05/24 10:58:04;;;;;;;3.88;0.47;;;18.50;99.90;;;;;;5063316;28;20073;-53
2022/05/24 11:00:36;;;;;;;1.27;0.38;;;19.20;99.90;;;;;;5065638;28;20029;-53
2022/05/24 11:03:07;;;;;;;2.03;0.70;;;19.10;99.90;;;;;;5066661;28;20074;-54
2022/05/24 11:05:37;;;;;;;3.33;0.73;;;18.80;99.90;;;;;;5060854;28;20090;-54
2022/05/24 11:08:33;;;;;;;2.38;0.50;;;19.30;99.90;;;;;;5062797;28;20028;-54
2022/05/24 11:11:29;;;;;;;2.58;0.70;;;19.70;99.90;;;;;;5061514;28;20370;-55
2022/05/24 11:14:08;;;;;;;3.83;0.80;;;18.20;99.90;;;;;;5065121;28;20447;-54
2022/05/24 11:16:46;;;;;;;2.22;0.50;;;17.80;99.90;;;;;;5054493;28;20101;-54
2022/05/24 11:19:27;;;;;;;1.10;0.60;;;17.60;99.90;;;;;;5059009;28;20024;-54
2022/05/24 11:22:30;;;;;;;2.95;0.73;;;17.80;99.90;;;;;;5055590;28;20255;-55
2022/05/24 11:25:12;;;;;;;5.35;1.05;;;17.50;99.90;;;;;;5062448;28;20032;-55
2022/05/24 11:27:50;;;;;;;4.95;0.65;;;17.40;99.90;;;;;;5058605;28;20037;-54
2022/05/24 11:30:30;;;;;;;4.18;0.77;;;18.20;99.90;;;;;;5060342;28;20552;-54
2022/05/24 11:33:09;;;;;;;2.33;0.52;;;19.10;99.90;;;;;;5058769;28;20501;-54
2022/05/24 11:35:35;;;;;;;3.55;0.82;;;18.60;99.90;;;;;;5057593;28;20279;-55
2022/05/24 11:38:13;;;;;;;2.83;0.70;;;17.70;99.90;;;;;;5056337;28;20017;-54
2022/05/24 11:40:57;;;;;;;2.38;0.70;;;17.20;99.90;;;;;;5054871;28;20032;-54
2022/05/24 11:43:35;;;;;;;6.63;1.10;;;17.20;99.90;;;;;;5055175;28;20131;-53
2022/05/24 11:46:29;;;;;;;5.90;1.00;;;16.60;99.90;;;;;;5056625;28;20025;-51
2022/05/24 11:48:56;;;;;;;14.93;1.13;;;15.40;99.90;;;;;;5056677;28;20029;-57
2022/05/24 11:51:39;;;;;;;4.60;1.08;;;14.60;99.90;;;;;;5053126;28;20085;-55
2022/05/24 11:54:06;;;;;;;;;;;14.50;99.90;;;;;;5061936;28;20137;-54
2022/05/24 11:56:33;;;;;;;1.88;0.70;;;15.00;99.90;;;;;;5055256;28;19916;-55
2022/05/24 11:59:11;;;;;;;1.83;0.85;;;16.10;99.90;;;;;;5063944;28;20024;-56
2022/05/24 12:01:46;;;;;;;3.08;0.70;;;16.60;99.90;;;;;;5081466;28;20032;-54
2022/05/24 12:09:59;;;;;;;1.95;0.60;;;18.30;99.90;;;;;;5064278;28;20036;-54
2022/05/24 12:12:44;;;;;;;2.60;0.68;;;19.00;99.90;;;;;;5058804;28;20024;-54
2022/05/24 12:15:47;;;;;;;1.23;0.40;;;19.30;99.90;;;;;;5056321;28;20108;-55
2022/05/24 12:18:15;;;;;;;2.60;0.45;;;20.00;99.90;;;;;;5061345;28;20083;-54
2022/05/24 12:20:42;;;;;;;1.98;0.47;;;19.30;99.90;;;;;;5055564;28;20115;-54
2022/05/24 12:23:07;;;;;;;2.17;0.40;;;19.30;99.90;;;;;;5058839;28;20025;-55
2022/05/24 12:25:54;;;;;;;1.95;0.40;;;19.50;99.90;;;;;;5062536;28;20031;-55
2022/05/24 12:28:22;;;;;;;3.13;0.50;;;19.20;99.90;;;;;;5060398;28;20067;-55
2022/05/24 12:30:50;;;;;;;0.95;0.38;;;18.70;99.90;;;;;;5060624;28;20513;-55
2022/05/24 12:33:26;;;;;;;1.00;0.40;;;17.90;99.90;;;;;;5055597;28;20132;-54
2022/05/24 12:35:54;;;;;;;3.05;0.60;;;17.40;99.90;;;;;;5063365;28;20028;-55
2022/05/24 12:38:24;;;;;;;3.13;0.65;;;17.30;99.90;;;;;;5054493;28;20056;-55
2022/05/24 12:40:51;;;;;;;5.07;0.70;;;17.20;99.90;;;;;;5052009;28;20505;-55
2022/05/24 12:43:18;;;;;;;1.55;0.50;;;16.90;99.90;;;;;;5054716;28;20581;-55
2022/05/24 12:45:47;;;;;;;4.57;0.65;;;16.50;99.90;;;;;;5054002;28;20338;-55
2022/05/24 12:48:31;;;;;;;1.95;0.50;;;16.00;99.90;;;;;;5047418;28;20524;-55
2022/05/24 12:51:02;;;;;;;1.75;0.77;;;15.50;99.90;;;;;;5052077;28;20396;-57
2022/05/24 12:53:28;;;;;;;2.33;0.93;;;15.30;99.90;;;;;;5050791;28;20174;-57
2022/05/24 12:56:04;;;;;;;2.30;0.60;;;15.50;99.90;;;;;;5052523;28;20025;-57
2022/05/24 12:58:35;;;;;;;1.50;0.70;;;15.60;99.90;;;;;;5065464;28;20566;-57
2022/05/24 13:01:13;;;;;;;2.00;0.88;;;15.70;99.90;;;;;;5055341;28;20397;-56
2022/05/24 13:04:07;;;;;;;2.08;0.68;;;15.80;99.90;;;;;;5059884;28;20163;-55
2022/05/24 13:06:34;;;;;;;2.90;0.77;;;16.00;99.90;;;;;;5056415;28;20038;-55
2022/05/24 13:09:26;;;;;;;1.73;0.50;;;16.10;99.90;;;;;;5052839;28;20101;-54
2022/05/24 13:12:00;;;;;;;2.00;0.60;;;16.40;99.90;;;;;;5046527;28;20075;-54
2022/05/24 13:14:45;;;;;;;0.98;0.32;;;16.70;99.90;;;;;;5052650;28;20087;-54
2022/05/24 13:17:20;;;;;;;2.42;0.57;;;18.20;99.90;;;;;;5076937;28;20036;-55
2022/05/24 13:19:52;;;;;;;1.58;0.50;;;18.90;99.90;;;;;;5062291;28;20082;-54
2022/05/24 13:22:20;;;;;;;1.70;0.30;;;20.00;99.90;;;;;;5064574;28;20028;-55
2022/05/24 13:24:56;;;;;;;2.20;0.47;;;20.00;99.90;;;;;;5061226;28;20041;-54
2022/05/24 13:27:22;;;;;;;2.83;0.52;;;19.80;99.90;;;;;;5065326;28;20450;-55
2022/05/24 13:35:30;;;;;;;1.83;0.68;;;17.80;99.90;;;;;;5067228;28;20078;-55
2022/05/24 13:37:58;;;;;;;1.95;0.50;;;16.80;99.90;;;;;;5065557;28;20070;-55
2022/05/24 13:40:49;;;;;;;1.05;0.50;;;16.20;99.90;;;;;;5056804;28;20092;-53
2022/05/24 13:43:32;;;;;;;3.53;0.45;;;15.30;99.90;;;;;;5055255;28;20021;-54
2022/05/24 13:46:25;;;;;;;1.90;0.70;;;14.50;99.90;;;;;;5067011;28;20505;-56
2022/05/24 13:48:52;;;;;;;0.93;0.60;;;14.00;99.90;;;;;;5066826;28;20555;-60
2022/05/24 13:51:30;;;;;;;1.20;0.40;;;13.90;99.90;;;;;;5068925;28;20051;-60
2022/05/24 13:53:56;;;;;;;2.33;0.70;;;13.80;99.90;;;;;;5061128;28;20020;-60
2022/05/24 13:56:36;;;;;;;2.00;0.50;;;13.80;99.90;;;;;;5054759;28;20033;-59
2022/05/24 13:59:21;;;;;;;1.92;0.50;;;13.90;99.90;;;;;;5065076;28;20020;-59
2022/05/24 14:01:50;;;;;;;4.68;1.00;;;14.20;99.90;;;;;;5058424;28;20024;-57